createdAt,value
2022-08-23T00:00:16.241Z,17.47
2022-08-23T00:02:44.814Z,17.45
2022-08-23T00:05:11.541Z,17.45
2022-08-23T00:07:38.590Z,17.44
2022-08-23T00:10:05.163Z,17.42
2022-08-23T00:12:31.423Z,17.41
2022-08-23T00:14:57.719Z,17.40
2022-08-23T00:17:34.457Z,17.39
2022-08-23T00:20:01.226Z,17.39
2022-08-23T00:22:27.650Z,17.39
2022-08-23T00:24:53.964Z,17.40
2022-08-23T00:27:20.214Z,17.41
2022-08-23T00:29:46.443Z,17.41
2022-08-23T00:32:12.733Z,17.41
2022-08-23T00:34:39.193Z,17.43
2022-08-23T00:37:05.434Z,17.43
2022-08-23T00:39:31.696Z,17.44
2022-08-23T00:41:57.943Z,17.45
2022-08-23T00:44:24.156Z,17.45
2022-08-23T00:46:50.399Z,17.47
2022-08-23T00:49:16.659Z,17.46
2022-08-23T00:51:52.208Z,17.47
2022-08-23T00:54:19.136Z,17.46
2022-08-23T00:56:45.406Z,17.45
2022-08-23T00:59:11.635Z,17.45
2022-08-23T01:01:37.968Z,17.45
2022-08-23T01:04:05.179Z,17.47
2022-08-23T01:06:31.586Z,17.47
2022-08-23T01:08:57.806Z,17.47
2022-08-23T01:11:24.043Z,17.49
2022-08-23T01:13:50.270Z,17.49
2022-08-23T01:16:16.539Z,17.49
2022-08-23T01:18:42.796Z,17.46
2022-08-23T01:21:10.535Z,17.45
2022-08-23T01:23:36.996Z,17.43
2022-08-23T01:26:03.247Z,17.40
2022-08-23T01:28:29.475Z,17.39
2022-08-23T01:30:55.705Z,17.38
2022-08-23T01:33:22.054Z,17.36
2022-08-23T01:35:48.776Z,17.34
2022-08-23T01:38:15.025Z,17.33
2022-08-23T01:40:41.274Z,17.33
2022-08-23T01:43:07.575Z,17.35
2022-08-23T01:45:33.809Z,17.37
2022-08-23T01:48:00.159Z,17.36
2022-08-23T01:50:26.593Z,17.34
2022-08-23T01:52:52.903Z,17.29
2022-08-23T01:55:19.163Z,17.25
2022-08-23T01:57:45.522Z,17.24
2022-08-23T02:00:14.549Z,17.21
2022-08-23T02:02:40.920Z,17.20
2022-08-23T02:05:07.174Z,17.20
2022-08-23T02:07:33.416Z,17.21
2022-08-23T02:09:59.688Z,17.22
2022-08-23T02:12:25.977Z,17.21
2022-08-23T02:14:52.224Z,17.21
2022-08-23T02:17:18.456Z,17.19
2022-08-23T02:19:44.772Z,17.17
2022-08-23T02:22:11.015Z,17.17
2022-08-23T02:24:37.251Z,17.16
2022-08-23T02:27:03.540Z,17.16
2022-08-23T02:29:31.325Z,17.17
2022-08-23T02:31:57.553Z,17.18
2022-08-23T02:34:36.070Z,17.19
2022-08-23T02:37:02.348Z,17.19
2022-08-23T02:39:28.593Z,17.21
2022-08-23T02:41:54.841Z,17.21
2022-08-23T02:44:21.159Z,17.23
2022-08-23T02:46:47.418Z,17.25
2022-08-23T02:49:14.206Z,17.26
2022-08-23T02:51:40.471Z,17.26
2022-08-23T02:54:06.720Z,17.26
2022-08-23T02:56:32.992Z,17.24
2022-08-23T02:58:59.218Z,17.21
2022-08-23T03:01:25.488Z,17.18
2022-08-23T03:03:51.706Z,17.18
2022-08-23T03:06:24.757Z,17.16
2022-08-23T03:08:52.510Z,17.16
2022-08-23T03:11:18.807Z,17.17
2022-08-23T03:13:45.053Z,17.16
2022-08-23T03:16:11.318Z,17.16
2022-08-23T03:18:37.631Z,17.14
2022-08-23T03:21:03.976Z,17.14
2022-08-23T03:23:30.211Z,17.12
2022-08-23T03:25:56.492Z,17.12
2022-08-23T03:28:22.727Z,17.11
2022-08-23T03:30:49.163Z,17.09
2022-08-23T03:33:15.399Z,17.08
2022-08-23T03:35:41.650Z,17.07
2022-08-23T03:38:07.893Z,17.08
2022-08-23T03:40:34.144Z,17.08
2022-08-23T03:43:00.456Z,17.09
2022-08-23T03:45:26.700Z,17.08
2022-08-23T03:47:53.048Z,17.06
2022-08-23T03:50:19.289Z,17.04
2022-08-23T03:52:45.532Z,17.04
2022-08-23T03:55:11.910Z,17.03
2022-08-23T03:57:38.149Z,17.02
2022-08-23T04:00:04.438Z,17.00
2022-08-23T04:02:30.694Z,16.98
2022-08-23T04:04:57.046Z,16.97
2022-08-23T04:07:23.290Z,16.99
2022-08-23T04:09:54.430Z,16.98
2022-08-23T04:12:21.343Z,16.99
2022-08-23T04:14:47.585Z,16.99
2022-08-23T04:17:13.964Z,16.99
2022-08-23T04:19:40.315Z,16.97
2022-08-23T04:22:06.550Z,16.94
2022-08-23T04:24:32.841Z,16.94
2022-08-23T04:26:59.113Z,16.92
2022-08-23T04:29:33.774Z,16.94
2022-08-23T04:32:00.938Z,16.95
2022-08-23T04:34:28.721Z,16.94
2022-08-23T04:36:55.463Z,16.92
2022-08-23T04:39:21.854Z,16.94
2022-08-23T04:41:48.089Z,16.97
2022-08-23T04:44:14.347Z,16.99
2022-08-23T04:46:40.587Z,16.99
2022-08-23T04:49:06.904Z,17.00
2022-08-23T04:51:33.152Z,17.02
2022-08-23T04:53:59.418Z,17.02
2022-08-23T04:56:25.739Z,17.04
2022-08-23T04:58:52.007Z,17.05
2022-08-23T05:01:18.378Z,17.05
2022-08-23T05:03:44.670Z,17.05
2022-08-23T05:06:10.965Z,17.06
2022-08-23T05:08:37.196Z,17.09
2022-08-23T05:11:03.476Z,17.12
2022-08-23T05:13:29.851Z,17.14
2022-08-23T05:15:56.119Z,17.16
2022-08-23T05:18:23.986Z,17.18
2022-08-23T05:20:50.330Z,17.18
2022-08-23T05:23:16.580Z,17.18
2022-08-23T05:25:43.063Z,17.18
2022-08-23T05:28:09.426Z,17.20
2022-08-23T05:30:37.896Z,17.20
2022-08-23T05:33:04.495Z,17.18
2022-08-23T05:35:33.340Z,17.17
2022-08-23T05:37:59.777Z,17.15
2022-08-23T05:40:26.195Z,17.18
2022-08-23T05:42:52.584Z,17.20
2022-08-23T05:45:21.973Z,17.23
2022-08-23T05:47:49.782Z,17.25
2022-08-23T05:50:16.368Z,17.25
2022-08-23T05:52:42.596Z,17.24
2022-08-23T05:55:08.866Z,17.24
2022-08-23T05:57:35.155Z,17.25
2022-08-23T06:00:01.468Z,17.27
2022-08-23T06:02:27.737Z,17.27
2022-08-23T06:04:57.262Z,17.27
2022-08-23T06:07:23.830Z,17.31
2022-08-23T06:09:50.089Z,17.34
2022-08-23T06:12:16.376Z,17.35
2022-08-23T06:14:42.714Z,17.37
2022-08-23T06:17:08.966Z,17.41
2022-08-23T06:19:35.288Z,17.44
2022-08-23T06:22:01.562Z,17.49
2022-08-23T06:24:27.827Z,17.56
2022-08-23T06:26:54.060Z,17.60
2022-08-23T06:29:20.417Z,17.64
2022-08-23T06:31:46.700Z,17.68
2022-08-23T06:34:13.113Z,17.74
2022-08-23T06:36:39.381Z,17.77
2022-08-23T06:39:05.929Z,17.81
2022-08-23T06:41:32.451Z,17.88
2022-08-23T06:43:58.759Z,17.94
2022-08-23T06:46:25.290Z,17.97
2022-08-23T06:48:54.517Z,18.02
2022-08-23T06:51:20.780Z,18.08
2022-08-23T06:53:47.024Z,18.15
2022-08-23T06:56:13.275Z,18.21
2022-08-23T06:58:39.555Z,18.29
2022-08-23T07:01:05.936Z,18.39
2022-08-23T07:03:32.423Z,18.48
2022-08-23T07:06:03.245Z,18.55
2022-08-23T07:08:29.534Z,18.58
2022-08-23T07:10:55.889Z,18.67
2022-08-23T07:13:22.126Z,18.75
2022-08-23T07:15:50.151Z,18.80
2022-08-23T07:18:16.592Z,18.83
2022-08-23T07:20:42.820Z,18.81
2022-08-23T07:23:09.090Z,18.84
2022-08-23T07:25:35.391Z,18.81
2022-08-23T07:28:02.071Z,18.86
2022-08-23T07:30:28.783Z,18.89
2022-08-23T07:32:55.086Z,18.94
2022-08-23T07:35:21.606Z,19.01
2022-08-23T07:37:48.038Z,19.07
2022-08-23T07:40:20.329Z,19.11
2022-08-23T07:42:47.039Z,19.15
2022-08-23T07:45:13.634Z,19.20
2022-08-23T07:47:40.346Z,19.23
2022-08-23T07:50:06.627Z,19.28
2022-08-23T07:52:32.889Z,19.33
2022-08-23T07:54:59.212Z,19.34
2022-08-23T07:57:25.488Z,19.38
2022-08-23T07:59:51.731Z,19.43
2022-08-23T08:02:18.109Z,19.44
2022-08-23T08:04:44.370Z,19.49
2022-08-23T08:07:19.368Z,19.54
2022-08-23T08:09:47.162Z,19.63
2022-08-23T08:12:13.396Z,19.71
2022-08-23T08:14:39.695Z,19.77
2022-08-23T08:17:05.927Z,19.82
2022-08-23T08:19:32.369Z,19.85
2022-08-23T08:21:58.773Z,19.77
2022-08-23T08:24:25.090Z,19.80
2022-08-23T08:26:51.314Z,19.84
2022-08-23T08:29:17.579Z,19.89
2022-08-23T08:31:43.829Z,19.92
2022-08-23T08:34:10.160Z,19.94
2022-08-23T08:36:36.394Z,19.96
2022-08-23T08:39:02.939Z,20.00
2022-08-23T08:41:29.237Z,20.04
2022-08-23T08:43:55.453Z,20.10
2022-08-23T08:46:21.707Z,20.11
2022-08-23T08:48:48.002Z,20.11
2022-08-23T08:51:14.277Z,20.17
2022-08-23T08:53:40.524Z,20.13
2022-08-23T08:56:07.712Z,20.14
2022-08-23T08:58:36.469Z,20.14
2022-08-23T09:01:02.757Z,20.19
2022-08-23T09:03:29.000Z,20.25
2022-08-23T09:05:56.428Z,20.34
2022-08-23T09:08:22.894Z,20.38
2022-08-23T09:10:49.150Z,20.47
2022-08-23T09:13:15.425Z,20.55
2022-08-23T09:15:46.519Z,20.63
2022-08-23T09:18:12.760Z,20.62
2022-08-23T09:20:39.028Z,20.65
2022-08-23T09:23:05.275Z,20.62
2022-08-23T09:25:31.532Z,20.63
2022-08-23T09:27:57.789Z,20.67
2022-08-23T09:30:24.078Z,20.74
2022-08-23T09:32:50.324Z,20.82
2022-08-23T09:35:16.663Z,20.87
2022-08-23T09:37:43.581Z,20.91
2022-08-23T09:40:09.882Z,20.99
2022-08-23T09:42:36.612Z,20.97
2022-08-23T09:45:02.980Z,20.92
2022-08-23T09:47:29.544Z,20.97
2022-08-23T09:49:55.949Z,20.99
2022-08-23T09:52:22.520Z,20.94
2022-08-23T09:54:49.526Z,20.88
2022-08-23T09:57:15.905Z,20.90
2022-08-23T09:59:42.258Z,20.99
2022-08-23T10:02:08.549Z,20.98
2022-08-23T10:04:34.939Z,21.01
2022-08-23T10:07:01.192Z,21.02
2022-08-23T10:09:27.454Z,21.03
2022-08-23T10:11:53.684Z,21.04
2022-08-23T10:14:19.940Z,21.01
2022-08-23T10:16:49.620Z,21.03
2022-08-23T10:19:15.873Z,21.10
2022-08-23T10:21:42.429Z,21.10
2022-08-23T10:24:08.771Z,21.16
2022-08-23T10:26:35.019Z,21.27
2022-08-23T10:29:01.284Z,21.38
2022-08-23T10:31:27.626Z,21.42
2022-08-23T10:33:53.910Z,21.45
2022-08-23T10:36:20.288Z,21.43
2022-08-23T10:38:46.600Z,21.42
2022-08-23T10:41:12.858Z,21.46
2022-08-23T10:43:39.173Z,21.50
2022-08-23T10:46:05.545Z,21.55
2022-08-23T10:48:32.036Z,21.65
2022-08-23T10:50:58.459Z,21.65
2022-08-23T10:53:24.886Z,21.62
2022-08-23T10:55:51.112Z,21.55
2022-08-23T10:58:17.337Z,21.55
2022-08-23T11:00:43.587Z,21.58
2022-08-23T11:03:10.021Z,21.67
2022-08-23T11:05:36.366Z,21.78
2022-08-23T11:08:02.895Z,21.89
2022-08-23T11:10:29.439Z,21.98
2022-08-23T11:12:55.816Z,22.11
2022-08-23T11:15:22.211Z,22.10
2022-08-23T11:17:48.514Z,22.17
2022-08-23T11:20:14.850Z,22.14
2022-08-23T11:22:41.223Z,22.19
2022-08-23T11:25:07.547Z,22.22
2022-08-23T11:27:33.868Z,22.17
2022-08-23T11:30:00.182Z,22.21
2022-08-23T11:32:29.826Z,22.29
2022-08-23T11:34:56.500Z,22.32
2022-08-23T11:37:23.466Z,22.30
2022-08-23T11:39:49.797Z,22.30
2022-08-23T11:42:16.109Z,22.30
2022-08-23T11:44:42.415Z,22.27
2022-08-23T11:47:08.710Z,22.24
2022-08-23T11:49:35.021Z,22.26
2022-08-23T11:52:01.383Z,22.31
2022-08-23T11:54:27.704Z,22.40
2022-08-23T11:56:54.025Z,22.52
2022-08-23T11:59:20.344Z,22.52
2022-08-23T12:01:47.207Z,22.56
2022-08-23T12:04:13.733Z,22.58
2022-08-23T12:06:40.460Z,22.65
2022-08-23T12:09:06.971Z,22.69
2022-08-23T12:11:33.263Z,22.69
2022-08-23T12:13:59.661Z,22.76
2022-08-23T12:16:26.032Z,22.79
2022-08-23T12:18:55.216Z,22.79
2022-08-23T12:21:21.477Z,22.76
2022-08-23T12:23:48.137Z,22.63
2022-08-23T12:26:14.469Z,22.60
2022-08-23T12:28:40.764Z,22.58
2022-08-23T12:31:07.816Z,22.57
2022-08-23T12:33:34.855Z,22.61
2022-08-23T12:36:01.105Z,22.64
2022-08-23T12:38:27.407Z,22.79
2022-08-23T12:40:54.614Z,22.95
2022-08-23T12:43:22.485Z,23.21
2022-08-23T12:45:49.344Z,23.44
2022-08-23T12:48:15.701Z,23.58
2022-08-23T12:50:42.008Z,23.68
2022-08-23T12:53:08.237Z,23.65
2022-08-23T12:55:34.546Z,23.62
2022-08-23T12:58:00.994Z,23.54
2022-08-23T13:00:27.397Z,23.30
2022-08-23T13:02:53.646Z,23.27
2022-08-23T13:05:20.096Z,23.27
2022-08-23T13:07:46.429Z,23.35
2022-08-23T13:10:12.755Z,23.45
2022-08-23T13:12:39.071Z,23.56
2022-08-23T13:15:05.313Z,23.67
2022-08-23T13:17:31.569Z,23.75
2022-08-23T13:19:57.874Z,23.84
2022-08-23T13:22:24.349Z,23.85
2022-08-23T13:25:01.298Z,24.01
2022-08-23T13:27:38.511Z,24.14
2022-08-23T13:30:04.978Z,24.44
2022-08-23T13:32:31.333Z,24.73
2022-08-23T13:34:57.672Z,25.01
2022-08-23T13:37:23.960Z,25.30
2022-08-23T13:39:50.256Z,24.99
2022-08-23T13:42:16.750Z,24.95
2022-08-23T13:44:42.996Z,25.38
2022-08-23T13:47:09.224Z,25.81
2022-08-23T13:49:35.533Z,25.71
2022-08-23T13:54:52.545Z,25.61
2022-08-23T13:57:19.314Z,25.90
2022-08-23T13:59:45.714Z,25.86
2022-08-23T14:02:12.178Z,25.93
2022-08-23T14:04:38.619Z,25.41
2022-08-23T14:07:04.948Z,25.72
2022-08-23T14:09:31.224Z,26.28
2022-08-23T14:11:57.510Z,26.49
2022-08-23T14:14:24.366Z,26.41
2022-08-23T14:16:50.764Z,26.25
2022-08-23T14:19:19.859Z,26.11
2022-08-23T14:22:03.307Z,26.28
2022-08-23T14:24:29.568Z,25.99
2022-08-23T14:26:55.793Z,25.41
2022-08-23T14:29:22.436Z,25.05
2022-08-23T14:31:49.061Z,25.11
2022-08-23T14:34:15.292Z,25.02
2022-08-23T14:36:42.002Z,24.99
2022-08-23T14:39:08.355Z,25.05
2022-08-23T14:41:34.822Z,25.41
2022-08-23T14:44:01.058Z,25.83
2022-08-23T14:46:27.295Z,26.31
2022-08-23T14:48:53.609Z,26.68
2022-08-23T14:51:19.864Z,26.98
2022-08-23T14:53:46.138Z,26.91
2022-08-23T14:56:21.161Z,26.84
2022-08-23T14:58:48.038Z,26.47
2022-08-23T15:01:14.334Z,26.49
2022-08-23T15:03:40.718Z,26.70
2022-08-23T15:06:07.035Z,26.86
2022-08-23T15:08:33.357Z,27.01
2022-08-23T15:13:55.570Z,26.70
2022-08-23T15:16:22.626Z,26.61
2022-08-23T15:18:48.890Z,26.56
2022-08-23T15:21:15.145Z,26.43
2022-08-23T15:23:41.370Z,26.63
2022-08-23T15:26:08.201Z,26.88
2022-08-23T15:28:34.469Z,27.00
2022-08-23T15:31:00.782Z,26.95
2022-08-23T15:33:30.978Z,26.65
2022-08-23T15:35:57.757Z,26.56
2022-08-23T15:38:23.980Z,26.73
2022-08-23T15:40:50.298Z,26.92
2022-08-23T15:43:16.617Z,27.10
2022-08-23T15:45:42.997Z,27.32
2022-08-23T15:48:09.392Z,27.44
2022-08-23T15:50:35.712Z,27.46
2022-08-23T15:53:02.128Z,27.12
2022-08-23T15:55:28.464Z,27.04
2022-08-23T15:57:54.781Z,27.11
2022-08-23T16:00:21.049Z,26.93
2022-08-23T16:03:15.897Z,26.85
2022-08-23T16:05:33.570Z,26.76
2022-08-23T16:07:59.803Z,26.80
2022-08-23T16:10:26.224Z,26.79
2022-08-23T16:12:54.686Z,26.74
2022-08-23T16:15:21.022Z,26.89
2022-08-23T16:17:47.387Z,27.05
2022-08-23T16:20:13.680Z,27.04
2022-08-23T16:22:39.926Z,27.01
2022-08-23T16:25:06.209Z,27.05
2022-08-23T16:27:32.564Z,26.92
2022-08-23T16:29:58.934Z,26.75
2022-08-23T16:32:25.271Z,26.64
2022-08-23T16:34:51.663Z,26.62
2022-08-23T16:37:18.013Z,26.68
2022-08-23T16:39:44.831Z,26.67
2022-08-23T16:42:11.165Z,26.71
2022-08-23T16:44:37.621Z,26.77
2022-08-23T16:47:04.204Z,26.87
2022-08-23T16:49:30.716Z,26.75
2022-08-23T16:51:57.033Z,26.73
2022-08-23T16:54:23.375Z,26.74
2022-08-23T16:56:49.607Z,26.72
2022-08-23T16:59:15.889Z,26.69
2022-08-23T17:01:42.195Z,26.61
2022-08-23T17:04:08.513Z,26.53
2022-08-23T17:06:34.821Z,26.53
2022-08-23T17:09:01.141Z,26.56
2022-08-23T17:11:29.878Z,26.36
2022-08-23T17:13:59.176Z,26.19
2022-08-23T17:16:31.709Z,26.01
2022-08-23T17:18:58.012Z,25.86
2022-08-23T17:21:24.408Z,25.79
2022-08-23T17:23:50.649Z,25.70
2022-08-23T17:26:16.923Z,25.62
2022-08-23T17:28:43.281Z,25.47
2022-08-23T17:31:09.740Z,25.40
2022-08-23T17:33:39.071Z,25.35
2022-08-23T17:36:05.376Z,25.15
2022-08-23T17:38:31.742Z,24.98
2022-08-23T17:40:58.063Z,24.82
2022-08-23T17:43:24.336Z,24.65
2022-08-23T17:45:50.841Z,24.51
2022-08-23T17:48:17.240Z,24.31
2022-08-23T17:50:43.724Z,24.11
2022-08-23T17:53:10.395Z,23.97
2022-08-23T17:55:36.678Z,23.74
2022-08-23T17:58:03.832Z,23.61
2022-08-23T18:00:30.753Z,23.48
2022-08-23T18:02:57.123Z,23.37
2022-08-23T18:05:23.414Z,23.26
2022-08-23T18:07:49.721Z,23.16
2022-08-23T18:10:16.046Z,23.03
2022-08-23T18:12:42.365Z,22.92
2022-08-23T18:15:08.749Z,22.82
2022-08-23T18:17:35.242Z,22.71
2022-08-23T18:20:01.731Z,22.63
2022-08-23T18:22:30.262Z,22.55
2022-08-23T18:24:56.587Z,22.45
2022-08-23T18:27:23.078Z,22.42
2022-08-23T18:29:51.351Z,22.37
2022-08-23T18:32:18.412Z,22.32
2022-08-23T18:34:44.952Z,22.28
2022-08-23T18:37:11.242Z,22.25
2022-08-23T18:39:37.762Z,22.23
2022-08-23T18:42:04.002Z,22.17
2022-08-23T18:44:30.316Z,22.12
2022-08-23T18:46:56.668Z,22.08
2022-08-23T18:49:22.981Z,22.02
2022-08-23T18:51:49.325Z,21.96
2022-08-23T18:54:15.663Z,21.92
2022-08-23T18:56:42.018Z,21.90
2022-08-23T18:59:08.551Z,21.85
2022-08-23T19:01:34.952Z,21.78
2022-08-23T19:04:01.416Z,21.71
2022-08-23T19:06:27.760Z,21.66
2022-08-23T19:08:56.479Z,21.59
2022-08-23T19:11:22.852Z,21.55
2022-08-23T19:13:49.136Z,21.51
2022-08-23T19:16:15.463Z,21.45
2022-08-23T19:18:41.825Z,21.42
2022-08-23T19:21:08.295Z,21.37
2022-08-23T19:23:34.614Z,21.32
2022-08-23T19:26:00.842Z,21.26
2022-08-23T19:28:27.340Z,21.18
2022-08-23T19:30:53.589Z,21.14
2022-08-23T19:33:19.876Z,21.07
2022-08-23T19:35:46.168Z,21.00
2022-08-23T19:38:12.412Z,20.92
2022-08-23T19:40:38.643Z,20.88
2022-08-23T19:43:04.981Z,20.84
2022-08-23T19:45:32.164Z,20.77
2022-08-23T19:47:58.796Z,20.69
2022-08-23T19:50:25.032Z,20.66
2022-08-23T19:52:51.287Z,20.60
2022-08-23T19:55:17.587Z,20.56
2022-08-23T19:57:43.868Z,20.49
2022-08-23T20:00:10.114Z,20.39
2022-08-23T20:02:36.407Z,20.36
2022-08-23T20:05:02.649Z,20.33
2022-08-23T20:07:29.076Z,20.30
2022-08-23T20:09:56.893Z,20.27
2022-08-23T20:12:23.266Z,20.22
2022-08-23T20:14:49.514Z,20.15
2022-08-23T20:17:15.812Z,20.09
2022-08-23T20:19:42.196Z,20.06
2022-08-23T20:22:08.446Z,20.01
2022-08-23T20:24:50.531Z,20.00
2022-08-23T20:27:27.816Z,19.95
2022-08-23T20:29:57.709Z,19.90
2022-08-23T20:32:23.953Z,19.87
2022-08-23T20:34:50.233Z,19.84
2022-08-23T20:37:16.461Z,19.79
2022-08-23T20:39:42.754Z,19.72
2022-08-23T20:42:08.996Z,19.66
2022-08-23T20:44:35.316Z,19.64
2022-08-23T20:47:03.190Z,19.61
2022-08-23T20:49:29.755Z,19.60
2022-08-23T20:51:56.199Z,19.57
2022-08-23T20:54:22.481Z,19.54
2022-08-23T20:56:49.007Z,19.52
2022-08-23T20:59:15.244Z,19.53
2022-08-23T21:01:41.569Z,19.50
2022-08-23T21:04:07.881Z,19.47
2022-08-23T21:06:34.167Z,19.46
2022-08-23T21:09:00.415Z,19.44
2022-08-23T21:11:26.656Z,19.40
2022-08-23T21:13:52.965Z,19.39
2022-08-23T21:16:19.374Z,19.35
2022-08-23T21:18:45.648Z,19.31
2022-08-23T21:21:11.886Z,19.29
2022-08-23T21:23:38.152Z,19.26
2022-08-23T21:26:04.387Z,19.24
2022-08-23T21:28:30.745Z,19.23
2022-08-23T21:30:57.114Z,19.20
2022-08-23T21:33:23.604Z,19.15
2022-08-23T21:35:49.925Z,19.08
2022-08-23T21:38:16.240Z,19.03
2022-08-23T21:40:42.776Z,18.98
2022-08-23T21:43:09.037Z,18.95
2022-08-23T21:45:35.268Z,18.92
2022-08-23T21:48:07.836Z,18.91
2022-08-23T21:50:34.344Z,18.89
2022-08-23T21:53:00.685Z,18.87
2022-08-23T21:55:35.988Z,18.84
2022-08-23T21:58:02.720Z,18.82
2022-08-23T22:00:29.025Z,18.80
2022-08-23T22:02:55.462Z,18.78
2022-08-23T22:05:21.756Z,18.78
2022-08-23T22:07:48.094Z,18.76
2022-08-23T22:10:14.829Z,18.74
2022-08-23T22:12:41.237Z,18.72
2022-08-23T22:15:07.504Z,18.68
2022-08-23T22:17:33.750Z,18.67
2022-08-23T22:20:00.051Z,18.64
2022-08-23T22:22:26.377Z,18.62
2022-08-23T22:24:52.606Z,18.55
2022-08-23T22:27:18.859Z,18.51
2022-08-23T22:29:46.457Z,18.49
2022-08-23T22:32:13.091Z,18.47
2022-08-23T22:34:39.468Z,18.46
2022-08-23T22:37:06.153Z,18.41
2022-08-23T22:39:32.453Z,18.39
2022-08-23T22:41:58.777Z,18.37
2022-08-23T22:44:25.232Z,18.32
2022-08-23T22:46:51.672Z,18.28
2022-08-23T22:49:18.130Z,18.25
2022-08-23T22:51:44.492Z,18.22
2022-08-23T22:54:10.957Z,18.21
2022-08-23T22:56:40.707Z,18.18
2022-08-23T22:59:07.066Z,18.16
2022-08-23T23:01:34.063Z,18.18
2022-08-23T23:04:00.847Z,18.14
2022-08-23T23:06:27.414Z,18.12
2022-08-23T23:08:53.817Z,18.06
2022-08-23T23:11:20.111Z,18.02
2022-08-23T23:13:46.558Z,17.97
2022-08-23T23:16:12.858Z,17.91
2022-08-23T23:18:39.226Z,17.88
2022-08-23T23:21:06.565Z,17.87
2022-08-23T23:23:32.895Z,17.88
2022-08-23T23:25:59.474Z,17.87
2022-08-23T23:28:25.763Z,17.84
2022-08-23T23:30:52.201Z,17.83
2022-08-23T23:33:18.533Z,17.81
2022-08-23T23:35:44.883Z,17.79
2022-08-23T23:38:11.302Z,17.79
2022-08-23T23:40:37.707Z,17.80
2022-08-23T23:43:04.041Z,17.77
2022-08-23T23:45:30.627Z,17.75
2022-08-23T23:47:57.173Z,17.72
2022-08-23T23:50:23.482Z,17.70
2022-08-23T23:52:49.977Z,17.70
2022-08-23T23:55:16.419Z,17.64
2022-08-23T23:57:42.840Z,17.62
